sensor_id;sensor_type;location;lat;lon;timestamp;pressure;altitude;pressure_sealevel;temperature;humidity
45621;BME280;31345;51.522;10.702;2023-04-03T00:02:26;100357.09;;;0.55;100.00
45621;BME280;31345;51.522;10.702;2023-04-03T00:04:59;100361.34;;;0.59;100.00
45621;BME280;31345;51.522;10.702;2023-04-03T00:07:31;100358.88;;;0.29;100.00
45621;BME280;31345;51.522;10.702;2023-04-03T00:10:04;100364.03;;;0.32;100.00
45621;BME280;31345;51.522;10.702;2023-04-03T00:12:32;100369.22;;;0.17;100.00
45621;BME280;31345;51.522;10.702;2023-04-03T00:14:59;100370.03;;;0.35;100.00
45621;BME280;31345;51.522;10.702;2023-04-03T00:17:26;100373.44;;;0.40;100.00
45621;BME280;31345;51.522;10.702;2023-04-03T00:20:00;100372.66;;;0.22;100.00
45621;BME280;31345;51.522;10.702;2023-04-03T00:22:32;100367.47;;;0.36;100.00
45621;BME280;31345;51.522;10.702;2023-04-03T00:25:05;100369.13;;;0.42;100.00
45621;BME280;31345;51.522;10.702;2023-04-03T00:27:38;100370.91;;;0.32;100.00
45621;BME280;31345;51.522;10.702;2023-04-03T00:30:13;100372.63;;;0.25;100.00
45621;BME280;31345;51.522;10.702;2023-04-03T00:32:47;100366.63;;;0.26;100.00
45621;BME280;31345;51.522;10.702;2023-04-03T00:35:16;100370.91;;;0.29;100.00
45621;BME280;31345;51.522;10.702;2023-04-03T00:37:44;100370.03;;;0.31;100.00
45621;BME280;31345;51.522;10.702;2023-04-03T00:40:12;100374.31;;;0.37;100.00
45621;BME280;31345;51.522;10.702;2023-04-03T00:42:40;100368.34;;;0.30;100.00
45621;BME280;31345;51.522;10.702;2023-04-03T00:48:11;100382.91;;;0.33;100.00
45621;BME280;31345;51.522;10.702;2023-04-03T00:50:47;100373.44;;;0.41;100.00
45621;BME280;31345;51.522;10.702;2023-04-03T00:53:16;100381.19;;;0.32;100.00
45621;BME280;31345;51.522;10.702;2023-04-03T00:55:49;100381.22;;;0.18;100.00
45621;BME280;31345;51.522;10.702;2023-04-03T00:58:18;100375.22;;;0.11;100.00
45621;BME280;31345;51.522;10.702;2023-04-03T01:00:53;100378.69;;;0.02;100.00
45621;BME280;31345;51.522;10.702;2023-04-03T01:03:23;100387.25;;;-0.25;100.00
45621;BME280;31345;51.522;10.702;2023-04-03T01:05:57;100387.25;;;-0.10;100.00
45621;BME280;31345;51.522;10.702;2023-04-03T01:08:25;100388.97;;;-0.06;100.00
45621;BME280;31345;51.522;10.702;2023-04-03T01:10:53;100388.94;;;0.10;100.00
45621;BME280;31345;51.522;10.702;2023-04-03T01:13:27;100385.53;;;0.08;100.00
45621;BME280;31345;51.522;10.702;2023-04-03T01:16:00;100383.78;;;0.19;100.00
45621;BME280;31345;51.522;10.702;2023-04-03T01:18:33;100376.09;;;0.12;100.00
45621;BME280;31345;51.522;10.702;2023-04-03T01:21:21;100371.84;;;-0.07;100.00
45621;BME280;31345;51.522;10.702;2023-04-03T01:24:02;100373.53;;;0.04;100.00
45621;BME280;31345;51.522;10.702;2023-04-03T01:26:37;100367.56;;;-0.06;100.00
45621;BME280;31345;51.522;10.702;2023-04-03T01:29:09;100364.97;;;-0.14;100.00
45621;BME280;31345;51.522;10.702;2023-04-03T01:31:48;100368.41;;;-0.18;100.00
45621;BME280;31345;51.522;10.702;2023-04-03T01:34:15;100375.25;;;-0.04;100.00
45621;BME280;31345;51.522;10.702;2023-04-03T01:36:44;100370.09;;;0.00;100.00
45621;BME280;31345;51.522;10.702;2023-04-03T01:39:16;100366.66;;;-0.00;100.00
45621;BME280;31345;51.522;10.702;2023-04-03T01:41:49;100364.97;;;0.05;100.00
45621;BME280;31345;51.522;10.702;2023-04-03T01:44:28;100361.53;;;-0.00;100.00
45621;BME280;31345;51.522;10.702;2023-04-03T01:46:57;100366.69;;;-0.02;100.00
45621;BME280;31345;51.522;10.702;2023-04-03T01:49:31;100358.13;;;-0.06;100.00
45621;BME280;31345;51.522;10.702;2023-04-03T01:52:04;100367.53;;;-0.19;100.00
45621;BME280;31345;51.522;10.702;2023-04-03T01:54:31;100368.41;;;-0.09;100.00
45621;BME280;31345;51.522;10.702;2023-04-03T01:59:53;100370.13;;;-0.19;100.00
45621;BME280;31345;51.522;10.702;2023-04-03T02:11:36;100381.28;;;-0.27;100.00
45621;BME280;31345;51.522;10.702;2023-04-03T02:14:04;100374.41;;;-0.21;100.00
45621;BME280;31345;51.522;10.702;2023-04-03T02:16:36;100383.84;;;-0.32;100.00
45621;BME280;31345;51.522;10.702;2023-04-03T02:19:09;100375.28;;;-0.29;100.00
45621;BME280;31345;51.522;10.702;2023-04-03T02:21:36;100383.84;;;-0.29;100.00
45621;BME280;31345;51.522;10.702;2023-04-03T02:24:08;100381.28;;;-0.30;100.00
45621;BME280;31345;51.522;10.702;2023-04-03T02:26:42;100385.56;;;-0.28;100.00
45621;BME280;31345;51.522;10.702;2023-04-03T02:29:15;100384.69;;;-0.27;100.00
45621;BME280;31345;51.522;10.702;2023-04-03T02:31:47;100381.28;;;-0.45;100.00
45621;BME280;31345;51.522;10.702;2023-04-03T02:34:20;100399.25;;;-0.38;100.00
45621;BME280;31345;51.522;10.702;2023-04-03T02:36:52;100407.84;;;-0.33;100.00
45621;BME280;31345;51.522;10.702;2023-04-03T02:39:25;100392.41;;;-0.36;100.00
45621;BME280;31345;51.522;10.702;2023-04-03T02:41:59;100397.53;;;-0.41;100.00
45621;BME280;31345;51.522;10.702;2023-04-03T02:44:28;100402.69;;;-0.46;100.00
45621;BME280;31345;51.522;10.702;2023-04-03T02:47:01;100394.13;;;-0.45;100.00
45621;BME280;31345;51.522;10.702;2023-04-03T02:49:33;100399.25;;;-0.32;100.00
45621;BME280;31345;51.522;10.702;2023-04-03T02:52:06;100402.69;;;-0.44;100.00
45621;BME280;31345;51.522;10.702;2023-04-03T02:54:38;100408.66;;;-0.65;100.00
45621;BME280;31345;51.522;10.702;2023-04-03T02:57:14;100404.38;;;-0.37;100.00
45621;BME280;31345;51.522;10.702;2023-04-03T02:59:41;100414.66;;;-0.57;100.00
45621;BME280;31345;51.522;10.702;2023-04-03T03:02:11;100411.25;;;-0.43;100.00
45621;BME280;31345;51.522;10.702;2023-04-03T03:04:38;100406.94;;;-0.60;100.00
45621;BME280;31345;51.522;10.702;2023-04-03T03:07:06;100414.66;;;-0.68;100.00
45621;BME280;31345;51.522;10.702;2023-04-03T03:09:40;100414.66;;;-0.63;100.00
45621;BME280;31345;51.522;10.702;2023-04-03T03:12:12;100416.41;;;-0.48;100.00
45621;BME280;31345;51.522;10.702;2023-04-03T03:14:46;100412.94;;;-0.41;100.00
45621;BME280;31345;51.522;10.702;2023-04-03T03:17:19;100417.25;;;-0.40;100.00
45621;BME280;31345;51.522;10.702;2023-04-03T03:19:51;100415.53;;;-0.41;100.00
45621;BME280;31345;51.522;10.702;2023-04-03T03:22:24;100418.94;;;-0.58;100.00
45621;BME280;31345;51.522;10.702;2023-04-03T03:24:51;100426.63;;;-0.61;100.00
45621;BME280;31345;51.522;10.702;2023-04-03T03:27:19;100425.78;;;-0.55;100.00
45621;BME280;31345;51.522;10.702;2023-04-03T03:29:48;100429.19;;;-0.61;100.00
45621;BME280;31345;51.522;10.702;2023-04-03T03:32:20;100429.22;;;-0.67;100.00
45621;BME280;31345;51.522;10.702;2023-04-03T03:34:53;100437.75;;;-0.73;100.00
45621;BME280;31345;51.522;10.702;2023-04-03T03:37:25;100431.78;;;-0.68;100.00
45621;BME280;31345;51.522;10.702;2023-04-03T03:39:53;100434.31;;;-0.78;100.00
45621;BME280;31345;51.522;10.702;2023-04-03T03:42:25;100424.88;;;-0.77;100.00
45621;BME280;31345;51.522;10.702;2023-04-03T03:44:59;100436.88;;;-0.83;100.00
45621;BME280;31345;51.522;10.702;2023-04-03T03:47:31;100432.59;;;-0.84;100.00
45621;BME280;31345;51.522;10.702;2023-04-03T03:50:04;100436.84;;;-0.87;100.00
45621;BME280;31345;51.522;10.702;2023-04-03T03:52:32;100437.75;;;-0.76;100.00
45621;BME280;31345;51.522;10.702;2023-04-03T03:55:05;100436.84;;;-0.93;100.00
45621;BME280;31345;51.522;10.702;2023-04-03T03:57:39;100441.94;;;-1.01;100.00
45621;BME280;31345;51.522;10.702;2023-04-03T04:00:16;100452.25;;;-0.92;100.00
45621;BME280;31345;51.522;10.702;2023-04-03T04:02:55;100450.53;;;-0.98;100.00
45621;BME280;31345;51.522;10.702;2023-04-03T04:05:29;100458.25;;;-0.96;100.00
45621;BME280;31345;51.522;10.702;2023-04-03T04:07:58;100457.31;;;-1.04;100.00
45621;BME280;31345;51.522;10.702;2023-04-03T04:10:26;100460.78;;;-0.93;100.00
45621;BME280;31345;51.522;10.702;2023-04-03T04:12:59;100454.72;;;-1.14;100.00
45621;BME280;31345;51.522;10.702;2023-04-03T04:15:30;100462.50;;;-0.98;100.00
45621;BME280;31345;51.522;10.702;2023-04-03T04:18:03;100451.38;;;-0.97;100.00
45621;BME280;31345;51.522;10.702;2023-04-03T04:20:36;100451.34;;;-1.03;100.00
45621;BME280;31345;51.522;10.702;2023-04-03T04:23:08;100453.91;;;-0.99;100.00
45621;BME280;31345;51.522;10.702;2023-04-03T04:25:43;100459.94;;;-0.89;100.00
45621;BME280;31345;51.522;10.702;2023-04-03T04:28:16;100462.44;;;-1.11;100.00
45621;BME280;31345;51.522;10.702;2023-04-03T04:30:50;100453.00;;;-1.16;100.00
45621;BME280;31345;51.522;10.702;2023-04-03T04:33:24;100467.50;;;-1.25;100.00
45621;BME280;31345;51.522;10.702;2023-04-03T04:35:56;100458.94;;;-1.24;100.00
45621;BME280;31345;51.522;10.702;2023-04-03T04:38:24;100462.47;;;-1.06;100.00
45621;BME280;31345;51.522;10.702;2023-04-03T04:40:53;100466.72;;;-1.14;100.00
45621;BME280;31345;51.522;10.702;2023-04-03T04:43:26;100469.22;;;-1.28;100.00
45621;BME280;31345;51.522;10.702;2023-04-03T04:46:03;100470.06;;;-1.25;100.00
45621;BME280;31345;51.522;10.702;2023-04-03T04:48:39;100471.75;;;-1.33;100.00
45621;BME280;31345;51.522;10.702;2023-04-03T04:51:12;100469.97;;;-1.45;100.00
45621;BME280;31345;51.522;10.702;2023-04-03T04:53:44;100477.59;;;-1.54;100.00
45621;BME280;31345;51.522;10.702;2023-04-03T04:56:19;100478.59;;;-1.32;100.00
45621;BME280;31345;51.522;10.702;2023-04-03T04:58:47;100486.31;;;-1.27;100.00
45621;BME280;31345;51.522;10.702;2023-04-03T05:01:19;100482.00;;;-1.36;100.00
45621;BME280;31345;51.522;10.702;2023-04-03T05:03:59;100485.34;;;-1.46;100.00
45621;BME280;31345;51.522;10.702;2023-04-03T05:06:26;100486.16;;;-1.54;100.00
45621;BME280;31345;51.522;10.702;2023-04-03T05:09:03;100487.06;;;-1.47;100.00
45621;BME280;31345;51.522;10.702;2023-04-03T05:11:32;100484.41;;;-1.61;100.00
45621;BME280;31345;51.522;10.702;2023-04-03T05:13:59;100485.34;;;-1.43;100.00
45621;BME280;31345;51.522;10.702;2023-04-03T05:16:30;100488.84;;;-1.38;100.00
45621;BME280;31345;51.522;10.702;2023-04-03T05:19:03;100485.47;;;-1.25;100.00
45621;BME280;31345;51.522;10.702;2023-04-03T05:21:30;100490.59;;;-1.25;100.00
45621;BME280;31345;51.522;10.702;2023-04-03T05:24:07;100492.38;;;-1.13;100.00
45621;BME280;31345;51.522;10.702;2023-04-03T05:26:42;100492.41;;;-1.08;100.00
45621;BME280;31345;51.522;10.702;2023-04-03T05:29:15;100501.00;;;-0.98;100.00
45621;BME280;31345;51.522;10.702;2023-04-03T05:31:44;100494.94;;;-1.14;100.00
45621;BME280;31345;51.522;10.702;2023-04-03T05:34:18;100499.22;;;-1.09;100.00
45621;BME280;31345;51.522;10.702;2023-04-03T05:36:53;100505.31;;;-0.92;100.00
45621;BME280;31345;51.522;10.702;2023-04-03T05:39:21;100503.59;;;-0.87;100.00
45621;BME280;31345;51.522;10.702;2023-04-03T05:41:49;100506.19;;;-0.86;99.78
45621;BME280;31345;51.522;10.702;2023-04-03T05:44:22;100505.38;;;-0.75;99.15
45621;BME280;31345;51.522;10.702;2023-04-03T05:46:57;100505.38;;;-0.71;98.70
45621;BME280;31345;51.522;10.702;2023-04-03T05:49:31;100513.94;;;-0.70;99.50
45621;BME280;31345;51.522;10.702;2023-04-03T05:51:58;100508.00;;;-0.58;99.39
45621;BME280;31345;51.522;10.702;2023-04-03T05:54:34;100510.59;;;-0.50;99.29
45621;BME280;31345;51.522;10.702;2023-04-03T05:57:16;100513.16;;;-0.41;96.64
45621;BME280;31345;51.522;10.702;2023-04-03T05:59:49;100513.19;;;-0.39;95.95
45621;BME280;31345;51.522;10.702;2023-04-03T06:02:23;100508.06;;;-0.30;96.68
45621;BME280;31345;51.522;10.702;2023-04-03T06:04:51;100509.78;;;-0.29;96.63
45621;BME280;31345;51.522;10.702;2023-04-03T06:07:24;100521.81;;;-0.06;95.42
45621;BME280;31345;51.522;10.702;2023-04-03T06:09:59;100524.38;;;-0.03;92.72
45621;BME280;31345;51.522;10.702;2023-04-03T06:12:28;100521.84;;;0.08;91.86
45621;BME280;31345;51.522;10.702;2023-04-03T06:15:02;100522.69;;;0.10;91.92
45621;BME280;31345;51.522;10.702;2023-04-03T06:17:31;100523.53;;;0.17;92.04
45621;BME280;31345;51.522;10.702;2023-04-03T06:19:59;100526.09;;;0.18;90.75
45621;BME280;31345;51.522;10.702;2023-04-03T06:22:26;100520.97;;;0.32;89.13
45621;BME280;31345;51.522;10.702;2023-04-03T06:25:01;100524.41;;;0.47;90.70
45621;BME280;31345;51.522;10.702;2023-04-03T06:27:33;100526.94;;;0.55;90.67
45621;BME280;31345;51.522;10.702;2023-04-03T06:30:06;100526.94;;;0.59;90.83
45621;BME280;31345;51.522;10.702;2023-04-03T06:32:35;100527.78;;;0.66;90.41
45621;BME280;31345;51.522;10.702;2023-04-03T06:35:03;100523.50;;;0.59;87.95
45621;BME280;31345;51.522;10.702;2023-04-03T06:37:35;100526.91;;;0.72;89.07
45621;BME280;31345;51.522;10.702;2023-04-03T06:40:09;100538.91;;;0.95;88.54
45621;BME280;31345;51.522;10.702;2023-04-03T06:42:46;100544.91;;;0.91;87.13
45621;BME280;31345;51.522;10.702;2023-04-03T06:45:18;100540.59;;;0.99;85.95
45621;BME280;31345;51.522;10.702;2023-04-03T06:47:49;100541.44;;;1.12;86.93
45621;BME280;31345;51.522;10.702;2023-04-03T06:50:16;100542.25;;;1.11;85.94
45621;BME280;31345;51.522;10.702;2023-04-03T06:52:43;100543.09;;;1.18;86.65
45621;BME280;31345;51.522;10.702;2023-04-03T06:55:16;100545.63;;;1.35;86.04
45621;BME280;31345;51.522;10.702;2023-04-03T06:57:43;100548.94;;;1.60;86.39
45621;BME280;31345;51.522;10.702;2023-04-03T07:00:11;100557.50;;;1.66;85.44
45621;BME280;31345;51.522;10.702;2023-04-03T07:02:44;100561.81;;;1.62;86.49
45621;BME280;31345;51.522;10.702;2023-04-03T07:05:17;100563.53;;;1.61;86.65
45621;BME280;31345;51.522;10.702;2023-04-03T07:07:50;100565.22;;;1.66;86.87
45621;BME280;31345;51.522;10.702;2023-04-03T07:10:17;100562.63;;;1.72;87.45
45621;BME280;31345;51.522;10.702;2023-04-03T07:12:45;100581.41;;;1.94;87.73
45621;BME280;31345;51.522;10.702;2023-04-03T07:15:12;100570.19;;;2.03;86.13
45621;BME280;31345;51.522;10.702;2023-04-03T07:17:45;100586.41;;;2.19;87.57
45621;BME280;31345;51.522;10.702;2023-04-03T07:20:12;100577.03;;;2.10;86.07
45621;BME280;31345;51.522;10.702;2023-04-03T07:22:42;100579.44;;;2.29;85.48
45621;BME280;31345;51.522;10.702;2023-04-03T07:25:14;100598.28;;;2.44;85.92
45621;BME280;31345;51.522;10.702;2023-04-03T07:27:42;100586.25;;;2.41;85.78
45621;BME280;31345;51.522;10.702;2023-04-03T07:30:14;100592.09;;;2.63;86.42
45621;BME280;31345;51.522;10.702;2023-04-03T07:32:42;100590.09;;;2.94;85.89
45621;BME280;31345;51.522;10.702;2023-04-03T07:35:10;100598.09;;;2.67;84.87
45621;BME280;31345;51.522;10.702;2023-04-03T07:37:37;100594.72;;;2.59;83.29
45621;BME280;31345;51.522;10.702;2023-04-03T07:40:08;100604.16;;;2.61;85.81
45621;BME280;31345;51.522;10.702;2023-04-03T07:42:37;100601.50;;;2.71;85.91
45621;BME280;31345;51.522;10.702;2023-04-03T07:45:10;100596.25;;;2.80;86.34
45621;BME280;31345;51.522;10.702;2023-04-03T07:47:44;100599.56;;;2.95;84.73
45621;BME280;31345;51.522;10.702;2023-04-03T07:50:16;100599.63;;;2.88;85.57
45621;BME280;31345;51.522;10.702;2023-04-03T07:52:50;100599.97;;;2.49;85.12
45621;BME280;31345;51.522;10.702;2023-04-03T07:55:21;100599.44;;;1.99;84.10
45621;BME280;31345;51.522;10.702;2023-04-03T07:57:52;100609.41;;;2.53;86.12
45621;BME280;31345;51.522;10.702;2023-04-03T08:00:26;100598.09;;;2.65;83.87
45621;BME280;31345;51.522;10.702;2023-04-03T08:03:00;100599.50;;;2.98;83.61
45621;BME280;31345;51.522;10.702;2023-04-03T08:05:27;100601.38;;;2.86;82.91
45621;BME280;31345;51.522;10.702;2023-04-03T08:08:01;100598.09;;;2.67;81.54
45621;BME280;31345;51.522;10.702;2023-04-03T08:10:30;100591.03;;;2.86;81.98
45621;BME280;31345;51.522;10.702;2023-04-03T08:12:58;100596.41;;;2.63;82.17
45621;BME280;31345;51.522;10.702;2023-04-03T08:15:30;100599.34;;;3.13;82.41
45621;BME280;31345;51.522;10.702;2023-04-03T08:18:05;100606.00;;;3.38;82.03
45621;BME280;31345;51.522;10.702;2023-04-03T08:20:32;100605.38;;;3.86;81.56
45621;BME280;31345;51.522;10.702;2023-04-03T08:23:05;100596.09;;;3.73;77.22
45621;BME280;31345;51.522;10.702;2023-04-03T08:25:34;100604.22;;;3.43;77.72
45621;BME280;31345;51.522;10.702;2023-04-03T08:28:09;100604.88;;;3.59;77.54
45621;BME280;31345;51.522;10.702;2023-04-03T08:30:38;100601.78;;;3.29;76.97
45621;BME280;31345;51.522;10.702;2023-04-03T08:33:11;100606.78;;;3.45;77.67
45621;BME280;31345;51.522;10.702;2023-04-03T08:35:43;100619.47;;;3.65;78.20
45621;BME280;31345;51.522;10.702;2023-04-03T08:38:10;100609.91;;;3.72;77.21
45621;BME280;31345;51.522;10.702;2023-04-03T08:40:39;100609.28;;;4.17;77.15
45621;BME280;31345;51.522;10.702;2023-04-03T08:43:24;100605.19;;;4.00;75.06
45621;BME280;31345;51.522;10.702;2023-04-03T08:46:02;100604.22;;;4.09;72.79
45621;BME280;31345;51.522;10.702;2023-04-03T08:51:37;100593.09;;;4.61;71.92
45621;BME280;31345;51.522;10.702;2023-04-03T08:54:31;100597.53;;;5.03;74.41
45621;BME280;31345;51.522;10.702;2023-04-03T08:57:06;100606.53;;;5.29;75.68
45621;BME280;31345;51.522;10.702;2023-04-03T08:59:39;100606.72;;;5.63;76.78
45621;BME280;31345;51.522;10.702;2023-04-03T09:02:16;100596.59;;;5.51;70.83
45621;BME280;31345;51.522;10.702;2023-04-03T09:04:45;100607.81;;;5.07;73.08
45621;BME280;31345;51.522;10.702;2023-04-03T09:07:19;100602.41;;;4.71;72.67
45621;BME280;31345;51.522;10.702;2023-04-03T09:09:49;100608.91;;;4.95;74.73
45621;BME280;31345;51.522;10.702;2023-04-03T09:12:24;100607.56;;;4.71;73.59
45621;BME280;31345;51.522;10.702;2023-04-03T09:15:00;100599.81;;;5.18;75.19
45621;BME280;31345;51.522;10.702;2023-04-03T09:17:35;100595.13;;;4.38;73.56
45621;BME280;31345;51.522;10.702;2023-04-03T09:20:09;100593.25;;;5.00;76.49
45621;BME280;31345;51.522;10.702;2023-04-03T09:22:43;100596.75;;;4.97;77.02
45621;BME280;31345;51.522;10.702;2023-04-03T09:25:12;100594.81;;;5.09;74.43
45621;BME280;31345;51.522;10.702;2023-04-03T09:27:47;100599.03;;;4.66;72.61
45621;BME280;31345;51.522;10.702;2023-04-03T09:30:20;100586.50;;;4.91;74.72
45621;BME280;31345;51.522;10.702;2023-04-03T09:32:50;100596.41;;;5.16;76.54
45621;BME280;31345;51.522;10.702;2023-04-03T09:35:22;100593.72;;;4.73;71.22
45621;BME280;31345;51.522;10.702;2023-04-03T09:37:51;100591.22;;;4.69;76.29
45621;BME280;31345;51.522;10.702;2023-04-03T09:40:28;100588.22;;;4.40;76.31
45621;BME280;31345;51.522;10.702;2023-04-03T09:42:58;100604.19;;;4.11;78.16
45621;BME280;31345;51.522;10.702;2023-04-03T09:45:31;100605.25;;;3.99;79.48
45621;BME280;31345;51.522;10.702;2023-04-03T09:48:06;100601.91;;;3.90;80.63
45621;BME280;31345;51.522;10.702;2023-04-03T09:50:52;100610.81;;;3.67;79.43
45621;BME280;31345;51.522;10.702;2023-04-03T09:53:27;100604.78;;;3.67;80.32
45621;BME280;31345;51.522;10.702;2023-04-03T09:55:55;100594.84;;;4.00;78.61
45621;BME280;31345;51.522;10.702;2023-04-03T09:58:25;100591.34;;;4.61;80.55
45621;BME280;31345;51.522;10.702;2023-04-03T10:00:58;100578.19;;;4.72;74.47
45621;BME280;31345;51.522;10.702;2023-04-03T10:03:27;100575.19;;;5.40;73.50
45621;BME280;31345;51.522;10.702;2023-04-03T10:06:01;100567.81;;;6.01;71.72
45621;BME280;31345;51.522;10.702;2023-04-03T10:08:34;100572.84;;;5.71;70.29
45621;BME280;31345;51.522;10.702;2023-04-03T10:11:08;100563.44;;;5.23;69.86
45621;BME280;31345;51.522;10.702;2023-04-03T10:13:38;100565.69;;;4.94;73.73
45621;BME280;31345;51.522;10.702;2023-04-03T10:16:23;100570.59;;;4.63;74.09
45621;BME280;31345;51.522;10.702;2023-04-03T10:19:03;100576.75;;;4.54;74.76
45621;BME280;31345;51.522;10.702;2023-04-03T10:21:35;100584.16;;;4.25;75.43
45621;BME280;31345;51.522;10.702;2023-04-03T10:24:14;100573.53;;;3.84;75.92
45621;BME280;31345;51.522;10.702;2023-04-03T10:26:51;100579.56;;;3.83;76.71
45621;BME280;31345;51.522;10.702;2023-04-03T10:29:24;100576.97;;;3.85;78.21
45621;BME280;31345;51.522;10.702;2023-04-03T10:32:00;100577.34;;;3.55;79.18
45621;BME280;31345;51.522;10.702;2023-04-03T10:34:29;100576.50;;;3.53;79.69
45621;BME280;31345;51.522;10.702;2023-04-03T10:37:05;100582.22;;;3.78;79.45
45621;BME280;31345;51.522;10.702;2023-04-03T10:39:45;100577.72;;;3.93;78.21
45621;BME280;31345;51.522;10.702;2023-04-03T10:42:23;100579.69;;;3.72;77.90
45621;BME280;31345;51.522;10.702;2023-04-03T10:45:05;100575.41;;;3.73;79.02
45621;BME280;31345;51.522;10.702;2023-04-03T10:47:42;100576.09;;;3.84;77.98
45621;BME280;31345;51.522;10.702;2023-04-03T10:50:29;100565.34;;;4.14;80.41
45621;BME280;31345;51.522;10.702;2023-04-03T10:53:04;100559.09;;;4.24;77.51
45621;BME280;31345;51.522;10.702;2023-04-03T10:55:36;100548.59;;;4.35;75.67
45621;BME280;31345;51.522;10.702;2023-04-03T10:58:12;100554.28;;;4.56;80.67
45621;BME280;31345;51.522;10.702;2023-04-03T11:00:50;100556.84;;;5.06;79.30
45621;BME280;31345;51.522;10.702;2023-04-03T11:03:26;100555.56;;;4.82;76.06
45621;BME280;31345;51.522;10.702;2023-04-03T11:06:01;100545.75;;;4.51;75.60
45621;BME280;31345;51.522;10.702;2023-04-03T11:08:34;100549.81;;;4.66;75.95
45621;BME280;31345;51.522;10.702;2023-04-03T11:11:06;100549.00;;;4.62;75.25
45621;BME280;31345;51.522;10.702;2023-04-03T11:13:41;100544.50;;;4.72;76.65
45621;BME280;31345;51.522;10.702;2023-04-03T11:16:18;100530.22;;;4.98;69.21
45621;BME280;31345;51.522;10.702;2023-04-03T11:18:54;100532.47;;;5.15;73.08
45621;BME280;31345;51.522;10.702;2023-04-03T11:21:32;100536.19;;;5.02;74.71
45621;BME280;31345;51.522;10.702;2023-04-03T11:24:02;100529.31;;;4.99;72.28
45621;BME280;31345;51.522;10.702;2023-04-03T11:26:31;100516.09;;;4.67;70.00
45621;BME280;31345;51.522;10.702;2023-04-03T11:29:08;100526.28;;;4.77;72.70
45621;BME280;31345;51.522;10.702;2023-04-03T11:31:47;100524.63;;;4.72;72.55
45621;BME280;31345;51.522;10.702;2023-04-03T11:34:31;100511.25;;;4.49;67.67
45621;BME280;31345;51.522;10.702;2023-04-03T11:37:11;100528.78;;;4.83;74.02
45621;BME280;31345;51.522;10.702;2023-04-03T11:39:40;100523.94;;;4.64;70.53
45621;BME280;31345;51.522;10.702;2023-04-03T11:42:20;100523.00;;;4.68;73.22
45621;BME280;31345;51.522;10.702;2023-04-03T11:47:49;100513.50;;;5.13;74.56
45621;BME280;31345;51.522;10.702;2023-04-03T11:53:10;100508.78;;;6.10;67.16
45621;BME280;31345;51.522;10.702;2023-04-03T11:55:54;100511.84;;;5.52;67.90
45621;BME280;31345;51.522;10.702;2023-04-03T11:58:22;100505.91;;;5.04;65.62
45621;BME280;31345;51.522;10.702;2023-04-03T12:00:56;100512.28;;;5.30;71.10
45621;BME280;31345;51.522;10.702;2023-04-03T12:09:24;100496.25;;;6.61;65.34
45621;BME280;31345;51.522;10.702;2023-04-03T12:11:57;100492.97;;;6.86;61.56
45621;BME280;31345;51.522;10.702;2023-04-03T12:14:31;100483.63;;;6.78;59.37
45621;BME280;31345;51.522;10.702;2023-04-03T12:17:12;100489.06;;;7.33;61.30
45621;BME280;31345;51.522;10.702;2023-04-03T12:19:51;100477.50;;;7.43;60.24
45621;BME280;31345;51.522;10.702;2023-04-03T12:22:24;100470.84;;;8.17;57.97
45621;BME280;31345;51.522;10.702;2023-04-03T12:24:52;100478.19;;;7.18;60.26
45621;BME280;31345;51.522;10.702;2023-04-03T12:27:26;100475.63;;;7.77;61.09
45621;BME280;31345;51.522;10.702;2023-04-03T12:30:01;100469.44;;;7.21;56.51
45621;BME280;31345;51.522;10.702;2023-04-03T12:32:46;100481.91;;;6.79;58.65
45621;BME280;31345;51.522;10.702;2023-04-03T12:35:23;100477.94;;;7.57;61.46
45621;BME280;31345;51.522;10.702;2023-04-03T12:38:14;100474.81;;;7.44;61.83
45621;BME280;31345;51.522;10.702;2023-04-03T12:40:49;100481.28;;;6.37;63.03
45621;BME280;31345;51.522;10.702;2023-04-03T12:46:09;100470.59;;;6.15;67.24
45621;BME280;31345;51.522;10.702;2023-04-03T12:48:47;100471.59;;;5.33;60.68
45621;BME280;31345;51.522;10.702;2023-04-03T12:51:16;100472.47;;;5.32;65.67
45621;BME280;31345;51.522;10.702;2023-04-03T12:53:51;100472.91;;;5.12;64.57
45621;BME280;31345;51.522;10.702;2023-04-03T12:56:27;100462.38;;;5.96;62.34
45621;BME280;31345;51.522;10.702;2023-04-03T12:59:12;100460.28;;;6.45;60.09
45621;BME280;31345;51.522;10.702;2023-04-03T13:01:40;100456.63;;;6.84;59.32
45621;BME280;31345;51.522;10.702;2023-04-03T13:04:12;100456.22;;;7.28;58.81
45621;BME280;31345;51.522;10.702;2023-04-03T13:06:41;100452.09;;;7.51;57.81
45621;BME280;31345;51.522;10.702;2023-04-03T13:09:17;100451.88;;;7.86;57.78
45621;BME280;31345;51.522;10.702;2023-04-03T13:11:54;100445.53;;;7.95;54.44
45621;BME280;31345;51.522;10.702;2023-04-03T13:14:29;100443.47;;;8.05;57.61
45621;BME280;31345;51.522;10.702;2023-04-03T13:16:57;100448.53;;;8.35;57.48
45621;BME280;31345;51.522;10.702;2023-04-03T13:19:30;100449.13;;;8.67;57.16
45621;BME280;31345;51.522;10.702;2023-04-03T13:22:03;100443.22;;;8.38;55.54
45621;BME280;31345;51.522;10.702;2023-04-03T13:24:37;100445.00;;;7.56;56.69
45621;BME280;31345;51.522;10.702;2023-04-03T13:27:06;100433.13;;;7.46;58.91
45621;BME280;31345;51.522;10.702;2023-04-03T13:29:34;100451.50;;;6.49;62.68
45621;BME280;31345;51.522;10.702;2023-04-03T13:32:13;100452.13;;;6.26;62.61
45621;BME280;31345;51.522;10.702;2023-04-03T13:34:50;100448.31;;;5.70;60.70
45621;BME280;31345;51.522;10.702;2023-04-03T13:37:24;100447.56;;;5.65;63.41
45621;BME280;31345;51.522;10.702;2023-04-03T13:40:00;100451.75;;;6.07;63.04
45621;BME280;31345;51.522;10.702;2023-04-03T13:42:35;100436.72;;;7.42;59.56
45621;BME280;31345;51.522;10.702;2023-04-03T13:45:11;100433.16;;;7.75;59.33